Time,TemperatureF,DewpointF,PressureIn,WindDirection,WindDirectionDegrees,WindSpeedMPH,WindSpeedGustMPH,Humidity,HourlyPrecipIn,Conditions,Clouds,dailyrainin,SoftwareType,DateUTC
2013-02-20 00:03:00,18.7,6.7,30.33,NNW,333,0.0,0.0,59,0.00,,,0.00,Wunderground v.1.15,2013-02-20 06:03:00,
2013-02-20 00:13:00,18.9,6.2,30.33,NNW,334,0.0,0.0,57,0.00,,,0.00,Wunderground v.1.15,2013-02-20 06:13:00,
2013-02-20 00:23:00,18.7,6.4,30.34,NW,318,0.0,0.0,58,0.00,,,0.00,Wunderground v.1.15,2013-02-20 06:23:00,
2013-02-20 00:33:00,18.2,5.9,30.33,WNW,300,0.0,0.0,58,0.00,,,0.00,Wunderground v.1.15,2013-02-20 06:33:00,
2013-02-20 00:43:00,18.1,5.8,30.33,WNW,302,0.0,0.0,58,0.00,,,0.00,Wunderground v.1.15,2013-02-20 06:43:00,
2013-02-20 00:58:00,17.6,5.3,30.34,North,355,0.0,0.0,58,0.00,,,0.00,Wunderground v.1.15,2013-02-20 06:58:00,
2013-02-20 01:08:00,17.2,5.3,30.35,NNW,334,0.0,0.0,59,0.00,,,0.00,Wunderground v.1.15,2013-02-20 07:08:00,
2013-02-20 01:18:00,16.9,5.4,30.36,WNW,303,0.0,0.0,60,0.00,,,0.00,Wunderground v.1.15,2013-02-20 07:18:00,
2013-02-20 01:23:00,16.6,5.5,30.36,NW,304,0.0,0.0,61,0.00,,,0.00,Wunderground v.1.15,2013-02-20 07:23:00,
2013-02-20 01:33:00,16.3,5.5,30.37,NNW,332,0.0,0.0,62,0.00,,,0.00,Wunderground v.1.15,2013-02-20 07:33:00,
2013-02-20 01:48:00,15.5,4.8,30.38,NNW,340,0.0,0.0,62,0.00,,,0.00,Wunderground v.1.15,2013-02-20 07:48:00,
2013-02-20 01:53:00,15.1,4.4,30.38,NNW,331,0.0,0.0,62,0.00,,,0.00,Wunderground v.1.15,2013-02-20 07:53:00,
2013-02-20 02:08:00,14.3,2.6,30.37,North,355,0.0,0.0,59,0.00,,,0.00,Wunderground v.1.15,2013-02-20 08:08:00,
2013-02-20 02:14:00,13.9,1.8,30.37,NW,310,0.0,0.0,58,0.00,,,0.00,Wunderground v.1.15,2013-02-20 08:14:00,
2013-02-20 02:28:00,13.4,1.7,30.37,NNW,327,0.0,0.0,59,0.00,,,0.00,Wunderground v.1.15,2013-02-20 08:28:00,
2013-02-20 02:33:00,13.2,1.5,30.37,NW,321,0.0,0.0,59,0.00,,,0.00,Wunderground v.1.15,2013-02-20 08:33:00,
2013-02-20 02:43:00,12.9,1.2,30.38,NW,311,0.0,0.0,59,0.00,,,0.00,Wunderground v.1.15,2013-02-20 08:43:00,
2013-02-20 02:53:00,12.5,1.2,30.39,NNW,331,0.0,0.0,60,0.00,,,0.00,Wunderground v.1.15,2013-02-20 08:53:00,
2013-02-20 03:03:00,12.4,1.8,30.40,NNW,346,0.0,0.0,62,0.00,,,0.00,Wunderground v.1.15,2013-02-20 09:03:00,
2013-02-20 03:13:00,12.2,1.7,30.40,NW,325,0.0,0.0,62,0.00,,,0.00,Wunderground v.1.15,2013-02-20 09:13:00,
2013-02-20 03:23:00,11.9,1.4,30.40,WNW,299,0.0,0.0,62,0.00,,,0.00,Wunderground v.1.15,2013-02-20 09:23:00,
2013-02-20 03:38:00,11.7,0.8,30.40,NW,311,0.0,0.0,61,0.00,,,0.00,Wunderground v.1.15,2013-02-20 09:38:00,
2013-02-20 03:43:00,11.7,0.8,30.40,NNW,329,0.0,0.0,61,0.00,,,0.00,Wunderground v.1.15,2013-02-20 09:43:00,
2013-02-20 03:53:00,11.5,0.6,30.40,NNW,330,0.0,0.0,61,0.00,,,0.00,Wunderground v.1.15,2013-02-20 09:53:00,
2013-02-20 04:08:00,11.2,0.4,30.41,NW,325,0.0,0.0,61,0.00,,,0.00,Wunderground v.1.15,2013-02-20 10:08:00,
2013-02-20 04:13:00,11.2,0.4,30.41,NW,305,0.0,0.0,61,0.00,,,0.00,Wunderground v.1.15,2013-02-20 10:13:00,
2013-02-20 04:23:00,11.0,0.2,30.41,NW,306,0.0,0.0,61,0.00,,,0.00,Wunderground v.1.15,2013-02-20 10:23:00,
2013-02-20 04:33:00,10.8,0.7,30.41,NW,315,0.0,0.0,63,0.00,,,0.00,Wunderground v.1.15,2013-02-20 10:33:00,
2013-02-20 04:43:00,10.4,0.6,30.40,NW,323,0.0,0.0,64,0.00,,,0.00,Wunderground v.1.15,2013-02-20 10:43:00,
2013-02-20 04:53:00,10.3,-0.5,30.41,NW,317,0.0,0.0,61,0.00,,,0.00,Wunderground v.1.15,2013-02-20 10:53:00,
2013-02-20 05:08:00,10.1,-0.3,30.41,WNW,299,0.0,0.0,62,0.00,,,0.00,Wunderground v.1.15,2013-02-20 11:08:00,
2013-02-20 05:13:00,9.9,-0.5,30.40,NNW,348,0.0,0.0,62,0.00,,,0.00,Wunderground v.1.15,2013-02-20 11:13:00,
2013-02-20 05:28:00,9.6,-0.8,30.40,NNE,12,0.0,0.0,62,0.00,,,0.00,Wunderground v.1.15,2013-02-20 11:28:00,
2013-02-20 05:33:00,9.6,-0.8,30.40,NW,321,0.0,0.0,62,0.00,,,0.00,Wunderground v.1.15,2013-02-20 11:33:00,
2013-02-20 05:48:00,9.4,-1.0,30.41,WNW,302,0.0,0.0,62,0.00,,,0.00,Wunderground v.1.15,2013-02-20 11:48:00,
2013-02-20 05:53:00,9.4,-1.0,30.41,NNW,343,0.0,0.0,62,0.00,,,0.00,Wunderground v.1.15,2013-02-20 11:53:00,
2013-02-20 06:03:00,9.2,-1.5,30.41,NNW,345,0.0,0.0,61,0.00,,,0.00,Wunderground v.1.15,2013-02-20 12:03:00,
2013-02-20 06:13:00,9.0,-1.4,30.41,NNW,336,0.0,0.0,62,0.00,,,0.00,Wunderground v.1.15,2013-02-20 12:13:00,
2013-02-20 06:23:00,8.9,-1.1,30.42,West,279,0.0,0.0,63,0.00,,,0.00,Wunderground v.1.15,2013-02-20 12:23:00,
2013-02-20 06:38:00,8.9,-1.1,30.43,NW,317,0.0,0.0,63,0.00,,,0.00,Wunderground v.1.15,2013-02-20 12:38:00,
2013-02-20 06:43:00,8.9,-1.1,30.44,NW,320,0.0,0.0,63,0.00,,,0.00,Wunderground v.1.15,2013-02-20 12:43:00,
2013-02-20 06:53:00,8.9,-1.5,30.44,NW,311,0.0,0.0,62,0.00,,,0.00,Wunderground v.1.15,2013-02-20 12:53:00,
2013-02-20 07:03:00,9.0,-1.4,30.45,NNW,333,0.0,0.0,62,0.00,,,0.00,Wunderground v.1.15,2013-02-20 13:03:00,
2013-02-20 07:13:00,9.4,-1.0,30.45,NNW,333,0.0,0.0,62,0.00,,,0.00,Wunderground v.1.15,2013-02-20 13:13:00,
2013-02-20 07:23:00,9.7,-0.7,30.46,NW,315,0.0,0.0,62,0.00,,,0.00,Wunderground v.1.15,2013-02-20 13:23:00,
2013-02-20 07:33:00,10.1,-0.7,30.46,NW,319,0.0,0.0,61,0.00,,,0.00,Wunderground v.1.15,2013-02-20 13:33:00,
2013-02-20 07:43:00,10.3,-0.9,30.46,WNW,283,0.0,0.0,60,0.00,,,0.00,Wunderground v.1.15,2013-02-20 13:43:00,
2013-02-20 07:53:00,10.4,-0.8,30.46,West,279,0.0,0.0,60,0.00,,,0.00,Wunderground v.1.15,2013-02-20 13:53:00,
2013-02-20 08:03:00,10.6,-0.6,30.47,NNW,331,0.0,0.0,60,0.00,,,0.00,Wunderground v.1.15,2013-02-20 14:03:00,
2013-02-20 08:18:00,11.3,-0.3,30.45,NNW,337,0.0,0.0,59,0.00,,,0.00,Wunderground v.1.15,2013-02-20 14:18:00,
2013-02-20 08:23:00,11.7,-0.3,30.45,NNW,342,0.0,0.0,58,0.00,,,0.00,Wunderground v.1.15,2013-02-20 14:23:00,
2013-02-20 08:33:00,12.0,0.0,30.45,WNW,301,0.0,0.0,58,0.00,,,0.00,Wunderground v.1.15,2013-02-20 14:33:00,
2013-02-20 08:48:00,12.7,0.7,30.46,North,355,0.0,0.0,58,0.00,,,0.00,Wunderground v.1.15,2013-02-20 14:48:00,
2013-02-20 08:53:00,13.2,0.4,30.46,NW,320,0.0,0.0,56,0.00,,,0.00,Wunderground v.1.15,2013-02-20 14:53:00,
2013-02-20 09:03:00,13.6,0.8,30.46,NNW,344,0.0,0.0,56,0.00,,,0.00,Wunderground v.1.15,2013-02-20 15:03:00,
2013-02-20 09:13:00,14.1,1.3,30.47,NW,320,0.0,0.0,56,0.00,,,0.00,Wunderground v.1.15,2013-02-20 15:13:00,
2013-02-20 09:23:00,14.3,1.1,30.47,NNW,342,0.0,0.0,55,0.00,,,0.00,Wunderground v.1.15,2013-02-20 15:23:00,
2013-02-20 09:33:00,14.9,1.6,30.47,NW,306,0.0,0.0,55,0.00,,,0.00,Wunderground v.1.15,2013-02-20 15:33:00,
2013-02-20 09:43:00,15.5,2.6,30.47,NW,321,0.0,0.0,56,0.00,,,0.00,Wunderground v.1.15,2013-02-20 15:43:00,
2013-02-20 09:53:00,15.8,2.1,30.48,West,271,0.0,0.0,54,0.00,,,0.00,Wunderground v.1.15,2013-02-20 15:53:00,
2013-02-20 10:03:00,16.6,2.4,30.48,NNW,338,0.0,0.0,53,0.00,,,0.00,Wunderground v.1.15,2013-02-20 16:03:00,
2013-02-20 10:13:00,17.6,3.3,30.48,West,273,0.0,0.0,53,0.00,,,0.00,Wunderground v.1.15,2013-02-20 16:13:00,
2013-02-20 10:23:00,18.4,2.8,30.47,NNW,344,0.0,0.0,50,0.00,,,0.00,Wunderground v.1.15,2013-02-20 16:23:00,
2013-02-20 10:33:00,19.7,4.5,30.46,SSW,192,0.0,0.0,51,0.00,,,0.00,Wunderground v.1.15,2013-02-20 16:33:00,
2013-02-20 10:43:00,20.0,3.9,30.47,NNW,329,0.0,0.0,49,0.00,,,0.00,Wunderground v.1.15,2013-02-20 16:43:00,
2013-02-20 10:53:00,20.8,4.6,30.47,SW,225,0.0,0.0,49,0.00,,,0.00,Wunderground v.1.15,2013-02-20 16:53:00,
2013-02-20 11:03:00,22.2,5.5,30.47,SSW,198,0.0,0.0,48,0.00,,,0.00,Wunderground v.1.15,2013-02-20 17:03:00,
2013-02-20 11:13:00,22.5,5.3,30.47,WNW,290,0.0,0.0,47,0.00,,,0.00,Wunderground v.1.15,2013-02-20 17:13:00,
2013-02-20 11:23:00,22.8,6.9,30.47,SW,215,0.0,0.0,50,0.00,,,0.00,Wunderground v.1.15,2013-02-20 17:23:00,
2013-02-20 11:33:00,23.1,5.4,30.48,NW,320,0.0,0.0,46,0.00,,,0.00,Wunderground v.1.15,2013-02-20 17:33:00,
2013-02-20 11:43:00,23.4,4.7,30.48,NW,321,0.0,0.0,44,0.00,,,0.00,Wunderground v.1.15,2013-02-20 17:43:00,
2013-02-20 11:53:00,24.1,6.7,30.47,WNW,303,0.0,0.0,47,0.00,,,0.00,Wunderground v.1.15,2013-02-20 17:53:00,
2013-02-20 12:04:00,24.9,7.0,30.47,WNW,299,0.0,0.0,46,0.00,,,0.00,Wunderground v.1.15,2013-02-20 18:04:00,
2013-02-20 12:14:00,24.2,4.9,30.48,WNW,289,0.0,0.0,43,0.00,,,0.00,Wunderground v.1.15,2013-02-20 18:14:00,
2013-02-20 12:23:00,24.2,4.9,30.47,WNW,298,0.0,0.0,43,0.00,,,0.00,Wunderground v.1.15,2013-02-20 18:23:00,
2013-02-20 12:33:00,24.7,5.3,30.47,NW,313,0.0,0.0,43,0.00,,,0.00,Wunderground v.1.15,2013-02-20 18:33:00,
2013-02-20 12:43:00,24.5,5.2,30.45,NW,313,0.0,0.0,43,0.00,,,0.00,Wunderground v.1.15,2013-02-20 18:43:00,
2013-02-20 12:53:00,25.0,5.6,30.44,WNW,293,0.0,0.0,43,0.00,,,0.00,Wunderground v.1.15,2013-02-20 18:53:00,
2013-02-20 13:03:00,24.7,5.3,30.44,WNW,300,0.0,0.0,43,0.00,,,0.00,Wunderground v.1.15,2013-02-20 19:03:00,
2013-02-20 13:18:00,25.9,7.9,30.44,WNW,294,0.0,0.0,46,0.00,,,0.00,Wunderground v.1.15,2013-02-20 19:18:00,
2013-02-20 13:23:00,25.8,6.9,30.43,NW,305,0.0,0.0,44,0.00,,,0.00,Wunderground v.1.15,2013-02-20 19:23:00,
2013-02-20 13:33:00,25.5,7.1,30.43,NW,325,0.0,0.0,45,0.00,,,0.00,Wunderground v.1.15,2013-02-20 19:33:00,
2013-02-20 13:48:00,26.7,7.2,30.43,NW,305,0.0,0.0,43,0.00,,,0.00,Wunderground v.1.15,2013-02-20 19:48:00,
2013-02-20 13:53:00,26.2,7.7,30.43,NNW,336,0.0,0.0,45,0.00,,,0.00,Wunderground v.1.15,2013-02-20 19:53:00,
2013-02-20 14:03:00,26.1,7.1,30.43,NNW,331,0.0,0.0,44,0.00,,,0.00,Wunderground v.1.15,2013-02-20 20:03:00,
2013-02-20 14:13:00,26.7,7.7,30.42,NW,322,0.0,0.0,44,0.00,,,0.00,Wunderground v.1.15,2013-02-20 20:13:00,
2013-02-20 14:23:00,26.8,8.3,30.41,NNW,340,0.0,0.0,45,0.00,,,0.00,Wunderground v.1.15,2013-02-20 20:23:00,
2013-02-20 14:33:00,27.0,7.4,30.40,NNW,329,0.0,0.0,43,0.00,,,0.00,Wunderground v.1.15,2013-02-20 20:33:00,
2013-02-20 14:43:00,27.0,8.0,30.40,NNW,333,0.0,0.0,44,0.00,,,0.00,Wunderground v.1.15,2013-02-20 20:43:00,
2013-02-20 14:58:00,27.0,7.4,30.40,WNW,300,0.0,0.0,43,0.00,,,0.00,Wunderground v.1.15,2013-02-20 20:58:00,
2013-02-20 15:03:00,27.1,8.0,30.40,NNW,344,0.0,0.0,44,0.00,,,0.00,Wunderground v.1.15,2013-02-20 21:03:00,
2013-02-20 15:13:00,27.1,9.0,30.40,WNW,283,0.0,0.0,46,0.00,,,0.00,Wunderground v.1.15,2013-02-20 21:13:00,
2013-02-20 15:28:00,26.7,7.2,30.41,NNW,346,0.0,0.0,43,0.00,,,0.00,Wunderground v.1.15,2013-02-20 21:28:00,
2013-02-20 15:33:00,26.7,7.7,30.41,NNW,327,0.0,0.0,44,0.00,,,0.00,Wunderground v.1.15,2013-02-20 21:33:00,
2013-02-20 15:43:00,26.5,8.0,30.41,NNW,348,0.0,0.0,45,0.00,,,0.00,Wunderground v.1.15,2013-02-20 21:43:00,
2013-02-20 15:58:00,26.8,9.7,30.42,West,262,0.0,0.0,48,0.00,,,0.00,Wunderground v.1.15,2013-02-20 21:58:00,
2013-02-20 16:08:00,26.7,9.1,30.42,NNW,332,0.0,0.0,47,0.00,,,0.00,Wunderground v.1.15,2013-02-20 22:08:00,
2013-02-20 16:13:00,26.5,9.9,30.42,NNW,327,0.0,0.0,49,0.00,,,0.00,Wunderground v.1.15,2013-02-20 22:13:00,
2013-02-20 16:23:00,26.2,9.6,30.42,NW,315,0.0,0.0,49,0.00,,,0.00,Wunderground v.1.15,2013-02-20 22:23:00,
2013-02-20 16:33:00,26.1,10.4,30.42,WNW,297,0.0,0.0,51,0.00,,,0.00,Wunderground v.1.15,2013-02-20 22:33:00,
2013-02-20 16:48:00,25.9,9.3,30.42,NNW,341,0.0,0.0,49,0.00,,,0.00,Wunderground v.1.15,2013-02-20 22:48:00,
2013-02-20 16:53:00,25.9,9.8,30.42,NNW,337,0.0,0.0,50,0.00,,,0.00,Wunderground v.1.15,2013-02-20 22:53:00,
2013-02-20 17:03:00,25.8,10.1,30.42,NNW,331,0.0,0.0,51,0.00,,,0.00,Wunderground v.1.15,2013-02-20 23:03:00,
2013-02-20 17:13:00,25.6,10.4,30.42,NNW,331,0.0,0.0,52,0.00,,,0.00,Wunderground v.1.15,2013-02-20 23:13:00,
2013-02-20 17:23:00,25.5,10.7,30.42,NNW,331,0.0,0.0,53,0.00,,,0.00,Wunderground v.1.15,2013-02-20 23:23:00,
2013-02-20 17:33:00,25.3,11.0,30.42,NNW,331,0.0,0.0,54,0.00,,,0.00,Wunderground v.1.15,2013-02-20 23:33:00,
2013-02-20 17:48:00,25.2,11.3,30.41,NNW,331,0.0,0.0,55,0.00,,,0.00,Wunderground v.1.15,2013-02-20 23:48:00,
2013-02-20 17:53:00,25.0,11.5,30.41,NNW,331,0.0,0.0,56,0.00,,,0.00,Wunderground v.1.15,2013-02-20 23:53:00,
2013-02-20 18:03:00,25.0,11.5,30.41,NNE,13,0.0,0.0,56,0.00,,,0.00,Wunderground v.1.15,2013-02-21 00:03:00,
2013-02-20 18:18:00,24.7,10.8,30.41,North,355,0.0,0.0,55,0.00,,,0.00,Wunderground v.1.15,2013-02-21 00:18:00,
2013-02-20 18:23:00,24.5,10.6,30.41,North,355,0.0,0.0,55,0.00,,,0.00,Wunderground v.1.15,2013-02-21 00:23:00,
2013-02-20 18:38:00,24.2,11.9,30.41,NNE,31,0.0,0.0,59,0.00,,,0.00,Wunderground v.1.15,2013-02-21 00:38:00,
2013-02-20 18:43:00,24.1,12.2,30.41,NNE,33,0.0,0.0,60,0.00,,,0.00,Wunderground v.1.15,2013-02-21 00:43:00,
2013-02-20 18:53:00,23.8,12.3,30.41,NNE,17,0.0,0.0,61,0.00,,,0.00,Wunderground v.1.15,2013-02-21 00:53:00,
2013-02-20 19:08:00,23.4,12.3,30.41,NNE,28,0.0,0.0,62,0.00,,,0.00,Wunderground v.1.15,2013-02-21 01:08:00,
2013-02-20 19:13:00,23.3,12.6,30.41,NNE,29,0.0,0.0,63,0.00,,,0.00,Wunderground v.1.15,2013-02-21 01:13:00,
2013-02-20 19:23:00,23.1,12.4,30.41,NE,38,0.0,0.0,63,0.00,,,0.00,Wunderground v.1.15,2013-02-21 01:23:00,
2013-02-20 19:38:00,22.6,12.2,30.40,NE,38,0.0,0.0,64,0.00,,,0.00,Wunderground v.1.15,2013-02-21 01:38:00,
2013-02-20 19:43:00,22.6,12.2,30.40,NE,38,0.0,0.0,64,0.00,,,0.00,Wunderground v.1.15,2013-02-21 01:43:00,
2013-02-20 19:53:00,22.3,12.0,30.41,NE,37,0.0,0.0,64,0.00,,,0.00,Wunderground v.1.15,2013-02-21 01:53:00,
2013-02-20 20:08:00,22.2,12.2,30.41,NE,37,0.0,0.0,65,0.00,,,0.00,Wunderground v.1.15,2013-02-21 02:08:00,
2013-02-20 20:13:00,22.3,12.3,30.42,NE,37,0.0,0.0,65,0.00,,,0.00,Wunderground v.1.15,2013-02-21 02:13:00,
2013-02-20 20:23:00,22.3,12.7,30.42,NE,37,0.0,0.0,66,0.00,,,0.00,Wunderground v.1.15,2013-02-21 02:23:00,
2013-02-20 20:33:00,22.5,12.8,30.41,NNE,26,0.0,0.0,66,0.00,,,0.00,Wunderground v.1.15,2013-02-21 02:33:00,
2013-02-20 20:43:00,22.5,12.8,30.41,NNE,25,0.0,0.0,66,0.00,,,0.00,Wunderground v.1.15,2013-02-21 02:43:00,
2013-02-20 20:53:00,22.2,12.6,30.40,NNE,25,0.0,0.0,66,0.00,,,0.00,Wunderground v.1.15,2013-02-21 02:53:00,
2013-02-20 21:03:00,22.0,12.7,30.41,NNE,25,0.0,0.0,67,0.00,,,0.00,Wunderground v.1.15,2013-02-21 03:03:00,
2013-02-20 21:13:00,21.7,12.4,30.41,NNE,22,0.0,0.0,67,0.00,,,0.00,Wunderground v.1.15,2013-02-21 03:13:00,
2013-02-20 21:28:00,21.2,12.3,30.42,NNE,16,0.0,0.0,68,0.00,,,0.00,Wunderground v.1.15,2013-02-21 03:28:00,
2013-02-20 21:33:00,21.2,12.6,30.42,NNE,16,0.0,0.0,69,0.00,,,0.00,Wunderground v.1.15,2013-02-21 03:33:00,
2013-02-20 21:43:00,20.9,12.6,30.42,North,5,0.0,0.0,70,0.00,,,0.00,Wunderground v.1.15,2013-02-21 03:43:00,
2013-02-20 21:53:00,20.6,12.4,30.42,North,5,0.0,0.0,70,0.00,,,0.00,Wunderground v.1.15,2013-02-21 03:53:00,
2013-02-20 22:03:00,20.6,12.7,30.42,North,5,0.0,0.0,71,0.00,,,0.00,Wunderground v.1.15,2013-02-21 04:03:00,
2013-02-20 22:13:00,20.4,12.8,30.42,North,5,0.0,0.0,72,0.00,,,0.00,Wunderground v.1.15,2013-02-21 04:13:00,
2013-02-20 22:23:00,20.6,13.0,30.42,North,5,0.0,0.0,72,0.00,,,0.00,Wunderground v.1.15,2013-02-21 04:23:00,
2013-02-20 22:33:00,20.6,13.0,30.42,NE,44,0.0,0.0,72,0.00,,,0.00,Wunderground v.1.15,2013-02-21 04:33:00,
2013-02-20 22:43:00,20.6,13.3,30.43,NE,43,0.0,0.0,73,0.00,,,0.00,Wunderground v.1.15,2013-02-21 04:43:00,
2013-02-20 22:58:00,20.8,13.5,30.43,NE,44,0.0,0.0,73,0.00,,,0.00,Wunderground v.1.15,2013-02-21 04:58:00,
2013-02-20 23:03:00,20.8,13.5,30.43,NE,44,0.0,0.0,73,0.00,,,0.00,Wunderground v.1.15,2013-02-21 05:03:00,
2013-02-20 23:08:00,20.8,13.5,30.43,NE,44,0.0,0.0,73,0.00,,,0.00,Wunderground v.1.15,2013-02-21 05:08:00,
2013-02-20 23:13:00,20.6,13.0,30.43,NE,44,0.0,0.0,72,0.00,,,0.00,Wunderground v.1.15,2013-02-21 05:13:00,
2013-02-20 23:18:00,20.4,13.1,30.42,NE,44,0.0,0.0,73,0.00,,,0.00,Wunderground v.1.15,2013-02-21 05:18:00,
2013-02-20 23:23:00,20.4,13.1,30.42,NE,44,0.0,0.0,73,0.00,,,0.00,Wunderground v.1.15,2013-02-21 05:23:00,
2013-02-20 23:38:00,20.1,12.8,30.42,NE,44,0.0,0.0,73,0.00,,,0.00,Wunderground v.1.15,2013-02-21 05:38:00,
2013-02-20 23:48:00,20.0,12.7,30.42,NE,44,0.0,0.0,73,0.00,,,0.00,Wunderground v.1.15,2013-02-21 05:48:00,
2013-02-20 23:58:00,20.0,13.0,30.42,NE,44,0.0,0.0,74,0.00,,,0.00,Wunderground v.1.15,2013-02-21 05:58:00,